createdAt,value
2022-08-09T00:01:54.893Z,84.06
2022-08-09T00:04:34.314Z,84.04
2022-08-09T00:07:10.741Z,84.45
2022-08-09T00:09:40.911Z,84.49
2022-08-09T00:12:22.513Z,84.89
2022-08-09T00:14:55.895Z,85.28
2022-08-09T00:18:07.585Z,85.47
2022-08-09T00:20:17.142Z,85.06
2022-08-09T00:22:49.843Z,85.58
2022-08-09T00:25:23.370Z,86.03
2022-08-09T00:28:04.155Z,85.92
2022-08-09T00:30:34.225Z,86.25
2022-08-09T00:33:04.096Z,86.41
2022-08-09T00:35:43.011Z,86.81
2022-08-09T00:38:16.159Z,86.45
2022-08-09T00:40:53.271Z,85.78
2022-08-09T00:44:14.580Z,86.10
2022-08-09T00:46:14.553Z,86.79
2022-08-09T00:49:04.013Z,86.90
2022-08-09T00:51:42.572Z,87.39
2022-08-09T00:54:19.368Z,87.38
2022-08-09T00:56:49.524Z,87.60
2022-08-09T00:59:41.693Z,87.88
2022-08-09T01:02:10.202Z,88.74
2022-08-09T01:04:51.020Z,89.41
2022-08-09T01:07:37.995Z,88.69
2022-08-09T01:10:23.359Z,89.17
2022-08-09T01:13:02.621Z,87.94
2022-08-09T01:15:40.814Z,88.62
2022-08-09T01:18:14.437Z,88.52
2022-08-09T01:20:49.756Z,88.32
2022-08-09T01:24:02.043Z,88.76
2022-08-09T01:26:41.705Z,88.72
2022-08-09T01:29:13.200Z,89.42
2022-08-09T01:32:31.187Z,89.43
2022-08-09T01:34:37.707Z,89.62
2022-08-09T01:37:09.302Z,89.62
2022-08-09T01:39:40.010Z,90.01
2022-08-09T01:42:12.546Z,89.97
2022-08-09T01:44:43.076Z,90.16
2022-08-09T01:47:13.413Z,90.29
2022-08-09T01:49:54.514Z,90.54
2022-08-09T01:52:25.287Z,90.11
2022-08-09T01:54:59.305Z,90.28
2022-08-09T01:57:40.097Z,90.18
2022-08-09T02:00:34.675Z,90.09
2022-08-09T02:03:11.370Z,89.52
2022-08-09T02:06:03.642Z,89.86
2022-08-09T02:08:41.255Z,90.25
2022-08-09T02:11:24.736Z,90.31
2022-08-09T02:14:25.660Z,90.74
2022-08-09T02:17:14.773Z,90.60
2022-08-09T02:19:47.628Z,91.01
2022-08-09T02:22:38.079Z,90.48
2022-08-09T02:25:17.036Z,91.30
2022-08-09T02:28:00.601Z,91.38
2022-08-09T02:30:41.522Z,91.84
2022-08-09T02:33:14.235Z,91.79
2022-08-09T02:36:02.838Z,92.63
2022-08-09T02:38:38.033Z,92.33
2022-08-09T02:41:12.408Z,91.89
2022-08-09T02:43:54.643Z,92.35
2022-08-09T02:46:29.835Z,92.73
2022-08-09T02:49:02.829Z,93.27
2022-08-09T02:51:40.245Z,93.16
2022-08-09T02:54:13.974Z,94.34
2022-08-09T02:56:51.287Z,93.80
2022-08-09T02:59:36.703Z,93.30
2022-08-09T03:02:17.069Z,93.73
2022-08-09T03:04:50.774Z,93.75
2022-08-09T03:07:21.482Z,94.21
2022-08-09T03:09:54.410Z,93.79
2022-08-09T03:12:27.510Z,94.42
2022-08-09T03:14:58.638Z,93.76
2022-08-09T03:17:31.645Z,93.90
2022-08-09T03:20:11.059Z,94.03
2022-08-09T03:22:44.705Z,94.13
2022-08-09T03:25:26.775Z,93.88
2022-08-09T03:28:26.206Z,95.20
2022-08-09T03:30:57.137Z,95.15
2022-08-09T03:33:54.176Z,95.19
2022-08-09T03:36:19.419Z,95.74
2022-08-09T03:38:50.796Z,95.48
2022-08-09T03:41:20.513Z,95.66
2022-08-09T03:44:07.784Z,95.96
2022-08-09T03:46:39.105Z,95.28
2022-08-09T03:49:11.789Z,95.96
2022-08-09T03:51:58.143Z,95.61
2022-08-09T03:54:34.515Z,95.73
2022-08-09T03:57:17.916Z,96.45
2022-08-09T03:59:54.265Z,95.99
2022-08-09T04:02:28.347Z,95.78
2022-08-09T04:05:06.433Z,95.90
2022-08-09T04:07:53.294Z,96.01
2022-08-09T04:10:29.400Z,95.96
2022-08-09T04:13:04.040Z,96.66
2022-08-09T04:15:52.502Z,96.29
2022-08-09T04:18:24.982Z,96.83
2022-08-09T04:20:57.640Z,97.31
2022-08-09T04:23:27.472Z,97.42
2022-08-09T04:25:58.013Z,97.32
2022-08-09T04:28:34.241Z,96.93
2022-08-09T04:31:08.120Z,96.56
2022-08-09T04:33:51.981Z,96.01
2022-08-09T04:36:28.091Z,96.28
2022-08-09T04:39:00.032Z,96.99
2022-08-09T04:41:33.240Z,96.94
2022-08-09T04:44:06.076Z,97.60
2022-08-09T04:46:58.314Z,97.52
2022-08-09T04:49:55.070Z,98.09
2022-08-09T04:52:27.546Z,98.39
2022-08-09T04:54:57.999Z,98.56
2022-08-09T04:57:59.070Z,98.80
2022-08-09T05:00:18.629Z,97.93
2022-08-09T05:02:48.616Z,97.94
2022-08-09T05:05:31.810Z,97.59
2022-08-09T05:08:15.582Z,98.63
2022-08-09T05:10:47.599Z,98.13
2022-08-09T05:13:17.311Z,98.00
2022-08-09T05:15:52.071Z,98.22
2022-08-09T05:18:39.912Z,98.90
2022-08-09T05:21:19.934Z,99.93
2022-08-09T05:24:01.008Z,100.00
2022-08-09T05:26:37.091Z,100.00
2022-08-09T05:29:21.864Z,100.00
2022-08-09T05:31:58.426Z,100.00
2022-08-09T05:34:31.142Z,100.00
2022-08-09T05:37:06.182Z,100.00
2022-08-09T05:39:43.602Z,100.00
2022-08-09T05:42:17.409Z,100.00
2022-08-09T05:44:51.724Z,100.00
2022-08-09T05:47:22.861Z,100.00
2022-08-09T05:50:30.349Z,100.00
2022-08-09T05:52:43.323Z,100.00
2022-08-09T05:55:20.377Z,100.00
2022-08-09T05:57:56.682Z,100.00
2022-08-09T06:00:29.071Z,100.00
2022-08-09T06:02:59.499Z,100.00
2022-08-09T06:05:31.371Z,100.00
2022-08-09T06:08:24.617Z,100.00
2022-08-09T06:10:59.148Z,100.00
2022-08-09T06:13:33.944Z,100.00
2022-08-09T06:16:04.840Z,100.00
2022-08-09T06:18:35.428Z,100.00
2022-08-09T06:21:08.093Z,100.00
2022-08-09T06:23:57.962Z,100.00
2022-08-09T06:26:30.292Z,100.00
2022-08-09T06:29:04.955Z,100.00
2022-08-09T06:31:40.315Z,100.00
2022-08-09T06:34:26.278Z,100.00
2022-08-09T06:37:00.146Z,100.00
2022-08-09T06:39:49.086Z,100.00
2022-08-09T06:42:24.955Z,100.00
2022-08-09T06:44:58.965Z,100.00
2022-08-09T06:47:39.815Z,100.00
2022-08-09T06:50:16.688Z,100.00
2022-08-09T06:52:49.119Z,100.00
2022-08-09T06:55:22.435Z,100.00
2022-08-09T06:58:03.159Z,100.00
2022-08-09T07:00:51.955Z,100.00
2022-08-09T07:03:27.605Z,100.00
2022-08-09T07:06:03.771Z,100.00
2022-08-09T07:08:37.355Z,100.00
2022-08-09T07:11:12.598Z,97.95
2022-08-09T07:14:04.880Z,98.46
2022-08-09T07:16:43.303Z,97.13
2022-08-09T07:19:18.492Z,98.18
2022-08-09T07:21:57.638Z,98.62
2022-08-09T07:24:32.128Z,97.94
2022-08-09T07:27:26.718Z,97.57
2022-08-09T07:30:03.809Z,96.04
2022-08-09T07:32:35.437Z,96.63
2022-08-09T07:35:08.146Z,94.81
2022-08-09T07:37:44.068Z,94.48
2022-08-09T07:40:17.693Z,94.97
2022-08-09T07:42:55.955Z,93.45
2022-08-09T07:45:39.787Z,94.24
2022-08-09T07:48:25.229Z,92.48
2022-08-09T07:51:10.372Z,91.07
2022-08-09T07:54:06.183Z,90.15
2022-08-09T07:56:44.961Z,88.64
2022-08-09T07:59:34.267Z,89.68
2022-08-09T08:02:19.096Z,88.25
2022-08-09T08:04:53.510Z,87.32
2022-08-09T08:08:43.469Z,85.57
2022-08-09T08:10:13.523Z,84.94
2022-08-09T08:12:45.616Z,85.35
2022-08-09T08:15:24.315Z,84.11
2022-08-09T08:17:58.670Z,83.35
2022-08-09T08:20:32.280Z,82.49
2022-08-09T08:23:16.086Z,82.15
2022-08-09T08:25:50.374Z,80.52
2022-08-09T08:28:35.896Z,81.02
2022-08-09T08:31:13.871Z,80.27
2022-08-09T08:33:53.138Z,80.44
2022-08-09T08:36:29.494Z,78.48
2022-08-09T08:39:00.768Z,76.79
2022-08-09T08:41:51.169Z,76.30
2022-08-09T08:44:27.505Z,76.73
2022-08-09T08:47:05.013Z,76.03
2022-08-09T08:49:48.520Z,76.29
2022-08-09T08:55:19.067Z,75.69
2022-08-09T08:57:56.141Z,74.06
2022-08-09T09:00:30.022Z,73.73
2022-08-09T09:03:08.720Z,72.36
2022-08-09T09:05:58.437Z,73.54
2022-08-09T09:08:37.611Z,73.33
2022-08-09T09:11:13.613Z,73.87
2022-08-09T09:13:56.282Z,74.46
2022-08-09T09:16:30.693Z,75.03
2022-08-09T09:19:22.740Z,73.01
2022-08-09T09:22:07.695Z,74.32
2022-08-09T09:24:43.403Z,72.93
2022-08-09T09:27:22.119Z,72.94
2022-08-09T09:30:38.266Z,70.29
2022-08-09T09:33:15.912Z,69.04
2022-08-09T09:36:01.703Z,71.92
2022-08-09T09:38:49.245Z,68.70
2022-08-09T09:41:48.740Z,67.79
2022-08-09T09:44:31.635Z,68.80
2022-08-09T09:47:10.113Z,65.52
2022-08-09T09:50:07.195Z,65.95
2022-08-09T09:52:57.373Z,67.09
2022-08-09T09:55:32.944Z,65.61
2022-08-09T09:58:16.469Z,65.34
2022-08-09T10:00:54.059Z,64.93
2022-08-09T10:03:58.065Z,63.69
2022-08-09T10:06:32.134Z,62.87
2022-08-09T10:09:21.544Z,62.84
2022-08-09T10:12:12.506Z,62.67
2022-08-09T10:14:51.303Z,62.66
2022-08-09T10:17:50.307Z,62.57
2022-08-09T10:20:33.083Z,62.63
2022-08-09T10:23:20.384Z,63.25
2022-08-09T10:26:06.881Z,62.80
2022-08-09T10:28:49.075Z,61.72
2022-08-09T10:32:35.728Z,59.67
2022-08-09T10:34:33.474Z,60.32
2022-08-09T10:37:04.484Z,62.04
2022-08-09T10:39:40.542Z,61.86
2022-08-09T10:42:18.985Z,60.16
2022-08-09T10:44:57.493Z,60.96
2022-08-09T10:48:26.218Z,59.57
2022-08-09T10:50:51.920Z,59.13
2022-08-09T10:53:46.569Z,59.08
2022-08-09T10:56:23.323Z,61.14
2022-08-09T10:58:54.020Z,60.30
2022-08-09T11:03:13.708Z,60.09
2022-08-09T11:04:35.368Z,62.31
2022-08-09T11:07:55.063Z,59.70
2022-08-09T11:10:54.792Z,59.02
2022-08-09T11:13:50.743Z,57.96
2022-08-09T11:16:50.969Z,59.32
2022-08-09T11:20:19.785Z,58.40
2022-08-09T11:23:02.852Z,58.36
2022-08-09T11:25:47.200Z,58.05
2022-08-09T11:28:56.186Z,57.82
2022-08-09T11:31:52.872Z,55.69
2022-08-09T11:34:42.842Z,56.46
2022-08-09T11:37:18.222Z,56.43
2022-08-09T11:40:04.233Z,56.77
2022-08-09T11:42:46.952Z,56.80
2022-08-09T11:45:42.220Z,54.85
2022-08-09T11:48:26.579Z,56.23
2022-08-09T11:53:00.786Z,55.31
2022-08-09T11:54:28.983Z,55.04
2022-08-09T11:57:47.649Z,55.80
2022-08-09T12:00:27.837Z,54.64
2022-08-09T12:02:59.179Z,54.83
2022-08-09T12:05:39.882Z,54.92
2022-08-09T12:08:21.679Z,54.84
2022-08-09T12:10:53.841Z,56.62
2022-08-09T12:14:07.397Z,54.35
2022-08-09T12:16:37.813Z,53.71
2022-08-09T12:19:12.126Z,53.99
2022-08-09T12:21:50.243Z,53.44
2022-08-09T12:24:24.927Z,52.14
2022-08-09T12:29:10.174Z,51.90
2022-08-09T12:30:02.116Z,54.89
2022-08-09T12:32:48.740Z,52.66
2022-08-09T12:35:21.689Z,52.63
2022-08-09T12:37:54.463Z,51.71
2022-08-09T12:40:27.271Z,50.57
2022-08-09T12:42:57.704Z,51.86
2022-08-09T12:45:34.899Z,51.46
2022-08-09T12:48:19.898Z,50.62
2022-08-09T12:50:58.437Z,51.66
2022-08-09T12:53:38.672Z,51.48
2022-08-09T12:56:39.259Z,51.20
2022-08-09T12:59:10.959Z,50.34
2022-08-09T13:01:48.730Z,50.37
2022-08-09T13:04:36.894Z,50.49
2022-08-09T13:07:16.581Z,52.34
2022-08-09T13:09:55.412Z,50.56
2022-08-09T13:12:30.758Z,51.77
2022-08-09T13:15:08.044Z,51.20
2022-08-09T13:18:02.655Z,50.90
2022-08-09T13:22:33.035Z,50.36
2022-08-09T13:24:44.697Z,50.99
2022-08-09T13:26:42.209Z,50.62
2022-08-09T13:29:14.108Z,49.29
2022-08-09T13:32:16.212Z,49.16
2022-08-09T13:34:52.083Z,50.22
2022-08-09T13:37:50.427Z,49.34
2022-08-09T13:41:50.813Z,49.15
2022-08-09T13:43:09.565Z,48.92
2022-08-09T13:46:42.556Z,48.96
2022-08-09T13:48:30.024Z,49.75
2022-08-09T13:50:59.852Z,48.36
2022-08-09T13:53:41.444Z,48.78
2022-08-09T13:56:14.199Z,49.52
2022-08-09T13:58:46.646Z,49.44
2022-08-09T14:01:56.253Z,48.94
2022-08-09T14:04:11.502Z,50.28
2022-08-09T14:06:43.855Z,48.95
2022-08-09T14:09:16.393Z,49.91
2022-08-09T14:11:47.237Z,48.82
2022-08-09T14:14:26.819Z,47.70
2022-08-09T14:16:58.614Z,48.96
2022-08-09T14:19:33.363Z,48.74
2022-08-09T14:22:03.707Z,48.52
2022-08-09T14:24:33.625Z,47.49
2022-08-09T14:27:03.579Z,47.95
2022-08-09T14:30:34.593Z,50.14
2022-08-09T14:32:43.028Z,47.98
2022-08-09T14:35:14.240Z,48.14
2022-08-09T14:38:02.433Z,47.65
2022-08-09T14:41:00.606Z,48.35
2022-08-09T14:43:23.571Z,48.46
2022-08-09T14:46:51.265Z,47.96
2022-08-09T14:48:45.587Z,48.59
2022-08-09T14:51:15.257Z,47.41
2022-08-09T14:53:48.684Z,47.13
2022-08-09T14:56:22.491Z,48.56
2022-08-09T14:58:57.862Z,48.54
2022-08-09T15:01:30.327Z,47.79
2022-08-09T15:04:00.328Z,47.83
2022-08-09T15:06:31.317Z,48.04
2022-08-09T15:09:01.357Z,48.59
2022-08-09T15:11:31.069Z,48.51
2022-08-09T15:14:04.814Z,47.72
2022-08-09T15:16:45.941Z,49.56
2022-08-09T15:19:19.966Z,48.42
2022-08-09T15:21:55.328Z,47.97
2022-08-09T15:24:29.749Z,48.46
2022-08-09T15:26:59.837Z,48.78
2022-08-09T15:30:58.561Z,47.37
2022-08-09T15:32:29.059Z,47.97
2022-08-09T15:35:01.049Z,47.29
2022-08-09T15:37:56.773Z,47.55
2022-08-09T15:40:32.297Z,48.11
2022-08-09T15:43:03.593Z,47.43
2022-08-09T15:46:02.844Z,48.53
2022-08-09T15:48:29.484Z,47.57
2022-08-09T15:51:02.225Z,47.25
2022-08-09T15:54:06.894Z,46.50
2022-08-09T15:56:41.505Z,47.00
2022-08-09T15:59:14.335Z,47.27
2022-08-09T16:01:44.042Z,47.65
2022-08-09T16:04:16.415Z,46.94
2022-08-09T16:06:52.785Z,47.96
2022-08-09T16:09:32.492Z,48.18
2022-08-09T16:12:13.672Z,49.90
2022-08-09T16:14:45.881Z,49.14
2022-08-09T16:17:17.005Z,49.55
2022-08-09T16:20:04.166Z,50.20
2022-08-09T16:22:42.055Z,48.13
2022-08-09T16:25:14.359Z,48.45
2022-08-09T16:27:47.931Z,48.13
2022-08-09T16:30:28.492Z,47.93
2022-08-09T16:33:11.608Z,47.47
2022-08-09T16:35:57.078Z,47.24
2022-08-09T16:38:29.851Z,47.92
2022-08-09T16:41:04.039Z,48.43
2022-08-09T16:43:34.236Z,48.84
2022-08-09T16:46:10.848Z,48.54
2022-08-09T16:48:54.052Z,48.79
2022-08-09T16:51:35.258Z,49.37
2022-08-09T16:54:25.950Z,49.63
2022-08-09T16:56:54.927Z,49.34
2022-08-09T16:59:26.217Z,50.24
2022-08-09T17:02:04.468Z,49.62
2022-08-09T17:04:35.262Z,50.88
2022-08-09T17:08:45.395Z,50.05
2022-08-09T17:10:04.040Z,49.73
2022-08-09T17:12:34.081Z,50.01
2022-08-09T17:15:17.954Z,50.11
2022-08-09T17:18:00.458Z,50.14
2022-08-09T17:20:35.235Z,51.10
2022-08-09T17:23:14.786Z,50.54
2022-08-09T17:25:44.988Z,51.17
2022-08-09T17:28:22.644Z,50.77
2022-08-09T17:30:53.107Z,51.10
2022-08-09T17:33:23.377Z,51.70
2022-08-09T17:35:53.620Z,50.61
2022-08-09T17:38:34.109Z,51.18
2022-08-09T17:41:08.479Z,50.33
2022-08-09T17:43:38.530Z,50.32
2022-08-09T17:46:10.124Z,50.70
2022-08-09T17:48:52.308Z,50.89
2022-08-09T17:51:23.204Z,50.63
2022-08-09T17:53:56.423Z,50.71
2022-08-09T17:56:29.251Z,51.56
2022-08-09T17:59:09.415Z,51.30
2022-08-09T18:02:06.573Z,51.39
2022-08-09T18:04:31.737Z,53.26
2022-08-09T18:07:04.610Z,51.96
2022-08-09T18:09:41.588Z,50.85
2022-08-09T18:12:15.343Z,51.59
2022-08-09T18:14:53.692Z,51.50
2022-08-09T18:17:27.287Z,51.65
2022-08-09T18:20:55.073Z,51.50
2022-08-09T18:23:07.412Z,51.70
2022-08-09T18:25:50.869Z,53.29
2022-08-09T18:30:35.239Z,51.76
2022-08-09T18:31:15.401Z,51.59
2022-08-09T18:33:54.932Z,53.49
2022-08-09T18:36:25.559Z,53.02
2022-08-09T18:39:02.315Z,52.33
2022-08-09T18:41:36.967Z,52.51
2022-08-09T18:44:13.622Z,54.28
2022-08-09T18:46:47.335Z,54.92
2022-08-09T18:49:23.849Z,54.58
2022-08-09T18:51:55.106Z,54.53
2022-08-09T18:54:29.583Z,55.07
2022-08-09T18:57:05.461Z,56.13
2022-08-09T18:59:48.463Z,56.72
2022-08-09T19:02:19.683Z,57.07
2022-08-09T19:05:03.894Z,57.37
2022-08-09T19:07:39.782Z,56.22
2022-08-09T19:10:14.096Z,58.20
2022-08-09T19:13:00.361Z,57.94
2022-08-09T19:15:40.087Z,58.81
2022-08-09T19:18:17.058Z,59.48
2022-08-09T19:20:52.247Z,59.05
2022-08-09T19:24:33.463Z,59.63
2022-08-09T19:26:18.291Z,60.41
2022-08-09T19:28:54.762Z,60.58
2022-08-09T19:31:27.150Z,60.45
2022-08-09T19:33:56.887Z,61.15
2022-08-09T19:36:30.896Z,60.79
2022-08-09T19:39:05.483Z,60.74
2022-08-09T19:41:35.898Z,61.04
2022-08-09T19:44:08.366Z,61.13
2022-08-09T19:46:50.663Z,61.06
2022-08-09T19:50:07.060Z,61.74
2022-08-09T19:52:13.266Z,61.80
2022-08-09T19:54:43.973Z,61.92
2022-08-09T19:57:13.739Z,62.33
2022-08-09T20:00:05.417Z,62.23
2022-08-09T20:04:12.666Z,62.51
2022-08-09T20:05:29.693Z,63.04
2022-08-09T20:08:16.002Z,63.45
2022-08-09T20:10:56.040Z,63.37
2022-08-09T20:13:27.307Z,63.80
2022-08-09T20:16:33.876Z,64.23
2022-08-09T20:19:03.702Z,64.65
2022-08-09T20:21:55.260Z,64.78
2022-08-09T20:24:31.957Z,63.79
2022-08-09T20:27:07.898Z,64.79
2022-08-09T20:29:39.597Z,64.55
2022-08-09T20:32:29.220Z,64.35
2022-08-09T20:35:02.126Z,64.33
2022-08-09T20:38:19.766Z,64.86
2022-08-09T20:40:26.416Z,64.69
2022-08-09T20:42:59.779Z,64.97
2022-08-09T20:46:00.123Z,64.97
2022-08-09T20:48:22.814Z,64.96
2022-08-09T20:50:58.140Z,65.35
2022-08-09T20:53:36.564Z,65.71
2022-08-09T20:56:21.055Z,65.41
2022-08-09T20:58:54.515Z,65.44
2022-08-09T21:01:34.696Z,65.69
2022-08-09T21:05:54.686Z,66.06
2022-08-09T21:07:13.910Z,66.43
2022-08-09T21:09:56.617Z,66.39
2022-08-09T21:15:23.844Z,66.52
2022-08-09T21:18:11.713Z,67.09
2022-08-09T21:20:56.560Z,67.72
2022-08-09T21:23:47.544Z,67.66
2022-08-09T21:26:16.081Z,68.21
2022-08-09T21:28:55.818Z,69.01
2022-08-09T21:31:49.453Z,68.95
2022-08-09T21:34:28.640Z,69.07
2022-08-09T21:37:01.837Z,69.57
2022-08-09T21:39:42.012Z,69.70
2022-08-09T21:42:12.313Z,69.84
2022-08-09T21:44:42.906Z,71.33
2022-08-09T21:47:18.171Z,70.85
2022-08-09T21:49:49.579Z,71.06
2022-08-09T21:52:23.974Z,71.18
2022-08-09T21:55:03.801Z,71.41
2022-08-09T21:57:38.788Z,72.87
2022-08-09T22:00:32.378Z,72.67
2022-08-09T22:03:04.817Z,72.72
2022-08-09T22:05:41.609Z,72.77
2022-08-09T22:08:16.438Z,73.77
2022-08-09T22:11:50.291Z,73.26
2022-08-09T22:13:37.166Z,73.68
2022-08-09T22:16:09.288Z,74.48
2022-08-09T22:18:52.848Z,74.83
2022-08-09T22:21:27.347Z,75.76
2022-08-09T22:24:24.284Z,75.96
2022-08-09T22:26:55.112Z,75.92
2022-08-09T22:29:38.405Z,75.16
2022-08-09T22:32:29.752Z,75.60
2022-08-09T22:35:06.259Z,76.64
2022-08-09T22:37:40.289Z,76.67
2022-08-09T22:40:20.262Z,76.61
2022-08-09T22:42:50.213Z,77.00
2022-08-09T22:48:16.314Z,76.92
2022-08-09T22:48:19.124Z,77.18
2022-08-09T22:50:59.432Z,77.34
2022-08-09T22:53:33.285Z,77.81
2022-08-09T22:56:33.430Z,78.14
2022-08-09T22:59:05.964Z,78.00
2022-08-09T23:01:53.667Z,77.86
2022-08-09T23:04:25.557Z,78.65
2022-08-09T23:07:11.208Z,79.13
2022-08-09T23:09:43.794Z,79.28
2022-08-09T23:12:16.078Z,79.33
2022-08-09T23:14:45.780Z,79.05
2022-08-09T23:17:16.049Z,79.96
2022-08-09T23:20:06.522Z,80.42
2022-08-09T23:22:35.840Z,80.55
2022-08-09T23:25:05.976Z,80.76
2022-08-09T23:27:59.661Z,80.75
2022-08-09T23:30:27.942Z,81.06
2022-08-09T23:32:57.606Z,80.74
2022-08-09T23:35:27.494Z,81.78
2022-08-09T23:37:57.193Z,81.17
2022-08-09T23:40:26.886Z,82.11
2022-08-09T23:42:59.241Z,82.37
2022-08-09T23:45:37.531Z,81.77
2022-08-09T23:48:09.198Z,81.79
2022-08-09T23:50:39.087Z,82.54
2022-08-09T23:53:10.408Z,82.85
2022-08-09T23:55:49.566Z,82.76
2022-08-09T23:58:26.090Z,82.63
